createdAt,value
2022-11-10T00:03:28.643Z,6.20
2022-11-10T00:08:50.378Z,6.20
2022-11-10T00:14:30.224Z,6.10
2022-11-10T00:19:51.483Z,6.10
2022-11-10T00:25:12.914Z,6.10
2022-11-10T00:30:33.899Z,6.00
2022-11-10T00:35:54.924Z,6.10
2022-11-10T00:41:16.092Z,5.90
2022-11-10T00:46:37.274Z,5.90
2022-11-10T00:51:58.428Z,5.90
2022-11-10T00:57:19.617Z,5.80
2022-11-10T01:02:40.855Z,5.80
2022-11-10T01:08:01.953Z,5.80
2022-11-10T01:13:23.363Z,6.00
2022-11-10T01:18:44.729Z,5.80
2022-11-10T01:24:05.780Z,5.70
2022-11-10T01:29:27.499Z,5.70
2022-11-10T01:34:48.455Z,5.50
2022-11-10T01:40:10.424Z,5.60
2022-11-10T01:45:45.448Z,5.70
2022-11-10T01:51:15.769Z,5.60
2022-11-10T01:56:50.366Z,5.60
2022-11-10T02:02:32.820Z,5.70
2022-11-10T02:07:54.299Z,5.80
2022-11-10T02:13:15.510Z,5.70
2022-11-10T02:18:38.225Z,5.40
2022-11-10T02:23:59.283Z,5.60
2022-11-10T02:29:20.735Z,5.50
2022-11-10T02:34:41.701Z,5.70
2022-11-10T02:40:02.641Z,5.50
2022-11-10T02:45:23.525Z,5.40
2022-11-10T02:50:44.534Z,5.10
2022-11-10T02:56:05.979Z,5.30
2022-11-10T03:01:27.376Z,5.30
2022-11-10T03:06:48.647Z,5.30
2022-11-10T03:12:09.563Z,5.30
2022-11-10T03:17:30.910Z,5.40
2022-11-10T03:22:52.348Z,5.40
2022-11-10T03:28:13.910Z,5.30
2022-11-10T03:33:35.792Z,5.10
2022-11-10T03:38:57.279Z,5.20
2022-11-10T03:44:18.360Z,5.20
2022-11-10T03:49:39.360Z,5.40
2022-11-10T03:55:03.295Z,5.60
2022-11-10T04:00:25.124Z,5.30
2022-11-10T04:06:04.661Z,5.20
2022-11-10T04:11:45.700Z,5.00
2022-11-10T04:17:07.277Z,5.00
2022-11-10T04:23:06.699Z,4.70
2022-11-10T04:28:27.875Z,4.70
2022-11-10T04:33:50.447Z,4.80
2022-11-10T04:39:12.229Z,5.20
2022-11-10T04:44:33.073Z,5.60
2022-11-10T04:49:54.227Z,6.00
2022-11-10T04:55:15.329Z,6.20
2022-11-10T05:00:37.744Z,6.30
2022-11-10T05:05:58.726Z,6.40
2022-11-10T05:11:20.045Z,6.50
2022-11-10T05:16:41.054Z,6.30
2022-11-10T05:22:02.148Z,6.20
2022-11-10T05:27:23.411Z,6.10
2022-11-10T05:32:44.776Z,6.00
2022-11-10T05:38:06.564Z,5.90
2022-11-10T05:43:27.925Z,5.70
2022-11-10T05:48:49.032Z,5.90
2022-11-10T05:54:10.625Z,5.90
2022-11-10T05:59:32.445Z,5.90
2022-11-10T06:04:53.380Z,6.10
2022-11-10T06:10:15.155Z,6.30
2022-11-10T06:15:36.255Z,6.40
2022-11-10T06:20:57.285Z,6.60
2022-11-10T06:26:18.636Z,6.70
2022-11-10T06:31:39.672Z,6.90
2022-11-10T06:37:01.114Z,7.00
2022-11-10T06:42:22.465Z,7.20
2022-11-10T06:47:43.607Z,7.30
2022-11-10T06:53:05.495Z,7.30
2022-11-10T06:58:26.880Z,7.40
2022-11-10T07:04:17.726Z,7.60
2022-11-10T07:09:30.077Z,7.70
2022-11-10T07:14:51.178Z,7.70
2022-11-10T07:20:12.774Z,7.70
2022-11-10T07:25:36.994Z,7.70
2022-11-10T07:30:59.016Z,7.70
2022-11-10T07:36:20.621Z,7.70
2022-11-10T07:41:42.019Z,7.80
2022-11-10T07:47:03.689Z,7.90
2022-11-10T07:52:25.008Z,8.00
2022-11-10T07:57:46.146Z,8.00
2022-11-10T08:03:11.496Z,8.10
2022-11-10T08:08:32.755Z,8.20
2022-11-10T08:13:54.037Z,8.20
2022-11-10T08:19:15.065Z,8.40
2022-11-10T08:24:36.103Z,8.50
2022-11-10T08:29:57.172Z,8.60
2022-11-10T08:35:18.181Z,8.70
2022-11-10T08:40:40.244Z,8.80
2022-11-10T08:46:02.192Z,8.90
2022-11-10T08:51:23.336Z,9.00
2022-11-10T08:56:44.567Z,9.00
2022-11-10T09:02:05.831Z,9.20
2022-11-10T09:07:27.281Z,9.30
2022-11-10T09:12:48.396Z,9.40
2022-11-10T09:18:11.816Z,9.70
2022-11-10T09:23:33.771Z,9.80
2022-11-10T09:28:55.415Z,9.80
2022-11-10T09:34:16.757Z,9.90
2022-11-10T09:39:37.947Z,9.90
2022-11-10T09:45:07.812Z,9.90
2022-11-10T09:50:36.931Z,10.00
2022-11-10T09:56:08.096Z,10.20
2022-11-10T10:01:35.028Z,10.30
2022-11-10T10:07:11.940Z,10.40
2022-11-10T10:12:55.337Z,10.40
2022-11-10T10:18:34.059Z,10.40
2022-11-10T10:24:21.042Z,10.60
2022-11-10T10:29:52.026Z,10.60
2022-11-10T10:35:14.886Z,10.80
2022-11-10T10:40:36.070Z,10.80
2022-11-10T10:46:05.239Z,10.90
2022-11-10T10:51:31.335Z,10.90
2022-11-10T10:57:05.916Z,11.00
2022-11-10T11:02:33.581Z,11.00
2022-11-10T11:07:58.765Z,10.90
2022-11-10T11:13:26.529Z,10.90
2022-11-10T11:18:47.740Z,10.90
2022-11-10T11:24:36.887Z,11.00
2022-11-10T11:30:24.510Z,10.80
2022-11-10T11:36:03.581Z,10.90
2022-11-10T11:42:02.255Z,10.80
2022-11-10T11:47:32.259Z,10.80
2022-11-10T11:53:11.021Z,10.70
2022-11-10T11:59:04.353Z,10.70
2022-11-10T12:04:44.868Z,10.70
2022-11-10T12:10:39.243Z,10.80
2022-11-10T12:16:15.008Z,10.90
2022-11-10T12:21:54.546Z,10.90
2022-11-10T12:27:24.348Z,11.10
2022-11-10T12:33:03.845Z,11.20
2022-11-10T12:38:47.459Z,11.20
2022-11-10T12:44:21.318Z,11.20
2022-11-10T12:49:57.993Z,11.20
2022-11-10T12:55:25.344Z,11.20
2022-11-10T13:01:05.151Z,11.20
2022-11-10T13:06:32.462Z,11.30
2022-11-10T13:12:11.394Z,11.40
2022-11-10T13:17:32.909Z,11.60
2022-11-10T13:22:53.803Z,11.60
2022-11-10T13:28:15.226Z,11.60
2022-11-10T13:33:38.366Z,11.50
2022-11-10T13:39:24.732Z,11.50
2022-11-10T13:44:49.009Z,11.40
2022-11-10T13:50:13.468Z,11.40
2022-11-10T13:55:53.214Z,11.50
2022-11-10T14:01:17.213Z,11.60
2022-11-10T14:06:50.667Z,11.40
2022-11-10T14:12:37.749Z,11.50
2022-11-10T14:18:01.003Z,11.40
2022-11-10T14:23:45.174Z,11.20
2022-11-10T14:29:29.513Z,11.10
2022-11-10T14:34:54.316Z,10.90
2022-11-10T14:40:19.255Z,10.70
2022-11-10T14:45:51.905Z,10.50
2022-11-10T14:51:18.894Z,10.40
2022-11-10T14:56:42.834Z,10.20
2022-11-10T15:02:04.141Z,10.10
2022-11-10T15:07:25.691Z,10.00
2022-11-10T15:13:24.974Z,9.90
2022-11-10T15:18:47.915Z,9.90
2022-11-10T15:24:11.563Z,9.70
2022-11-10T15:29:34.306Z,9.70
2022-11-10T15:35:08.607Z,9.60
2022-11-10T15:40:36.461Z,9.50
2022-11-10T15:46:04.003Z,9.50
2022-11-10T15:51:26.468Z,9.50
2022-11-10T15:56:48.056Z,9.60
2022-11-10T16:02:25.174Z,9.60
2022-11-10T16:07:46.581Z,9.50
2022-11-10T16:13:15.443Z,9.30
2022-11-10T16:18:41.220Z,9.20
2022-11-10T16:24:05.132Z,9.10
2022-11-10T16:29:26.324Z,9.10
2022-11-10T16:34:47.595Z,9.20
2022-11-10T16:40:21.618Z,9.20
2022-11-10T16:45:44.022Z,9.20
2022-11-10T16:51:05.334Z,9.20
2022-11-10T16:56:27.526Z,9.20
2022-11-10T17:01:49.188Z,9.10
2022-11-10T17:07:14.962Z,9.10
2022-11-10T17:12:36.634Z,9.10
2022-11-10T17:18:04.419Z,9.00
2022-11-10T17:23:27.118Z,9.00
2022-11-10T17:28:48.952Z,8.90
2022-11-10T17:34:10.024Z,8.80
2022-11-10T17:39:32.305Z,8.60
2022-11-10T17:44:53.612Z,8.40
2022-11-10T17:50:14.952Z,8.10
2022-11-10T17:55:37.172Z,8.10
2022-11-10T18:00:58.573Z,7.90
2022-11-10T18:06:21.035Z,7.90
2022-11-10T18:11:42.368Z,8.00
2022-11-10T18:17:04.443Z,8.10
2022-11-10T18:22:25.491Z,8.20
2022-11-10T18:27:46.676Z,8.30
2022-11-10T18:33:09.160Z,8.30
2022-11-10T18:38:30.241Z,8.30
2022-11-10T18:43:52.169Z,8.20
2022-11-10T18:49:13.584Z,8.30
2022-11-10T18:54:35.060Z,8.10
2022-11-10T18:59:56.862Z,7.90
2022-11-10T19:05:18.430Z,7.80
2022-11-10T19:10:42.958Z,7.60
2022-11-10T19:16:08.359Z,7.60
2022-11-10T19:21:30.400Z,7.40
2022-11-10T19:26:52.406Z,7.40
2022-11-10T19:32:13.501Z,7.30
2022-11-10T19:37:35.318Z,7.30
2022-11-10T19:42:56.542Z,7.30
2022-11-10T19:48:17.420Z,7.20
2022-11-10T19:53:38.462Z,7.10
2022-11-10T19:59:00.191Z,7.00
2022-11-10T20:04:21.431Z,6.90
2022-11-10T20:09:42.670Z,6.80
2022-11-10T20:15:04.047Z,6.70
2022-11-10T20:20:25.582Z,6.60
2022-11-10T20:25:46.589Z,6.50
2022-11-10T20:31:16.410Z,6.50
2022-11-10T20:36:37.414Z,7.00
2022-11-10T20:41:58.511Z,7.10
2022-11-10T20:47:19.565Z,7.00
2022-11-10T20:52:40.755Z,7.10
2022-11-10T20:58:01.980Z,6.70
2022-11-10T21:03:23.345Z,6.70
2022-11-10T21:08:44.531Z,6.80
2022-11-10T21:14:06.020Z,6.70
2022-11-10T21:19:27.505Z,6.30
2022-11-10T21:24:48.607Z,6.30
2022-11-10T21:30:22.781Z,6.50
2022-11-10T21:35:44.122Z,6.30
2022-11-10T21:41:05.317Z,6.30
2022-11-10T21:46:26.670Z,6.00
2022-11-10T21:51:48.007Z,6.10
2022-11-10T21:57:09.426Z,5.80
2022-11-10T22:02:30.519Z,5.80
2022-11-10T22:07:51.588Z,5.70
2022-11-10T22:13:34.890Z,5.90
2022-11-10T22:18:56.129Z,6.00
2022-11-10T22:24:29.378Z,6.10
2022-11-10T22:29:50.419Z,6.00
2022-11-10T22:35:31.371Z,6.40
2022-11-10T22:41:11.187Z,6.40
2022-11-10T22:46:39.489Z,6.40
2022-11-10T22:52:02.021Z,6.50
2022-11-10T22:57:23.330Z,6.50
2022-11-10T23:02:44.273Z,6.60
2022-11-10T23:08:06.279Z,6.40
2022-11-10T23:13:28.120Z,6.20
2022-11-10T23:18:50.758Z,6.10
2022-11-10T23:24:13.767Z,6.00
2022-11-10T23:29:34.718Z,6.00
2022-11-10T23:34:55.797Z,5.80
2022-11-10T23:40:16.940Z,5.60
2022-11-10T23:46:05.358Z,5.60
2022-11-10T23:51:19.473Z,5.50
2022-11-10T23:56:40.380Z,5.60
